Time;durP1;ratioP1;P1;durP2;ratioP2;P2;SDS_P1;SDS_P2;PMS_P1;PMS_P2;Temp;Humidity;BMP_temperature;BMP_pressure;BME280_temperature;BME280_humidity;BME280_pressure;Samples;Min_cycle;Max_cycle;Signal;HPM_P1;HPM_P2
2023/10/10 00:01:03;;;;;;;13.13;6.40;;;;;;;17.71;40.83;96197.53;5010222;28;20191;-79
2023/10/10 00:03:31;;;;;;;11.70;5.97;;;;;;;17.68;40.97;96192.59;5021058;28;20421;-80
2023/10/10 00:06:00;;;;;;;10.75;5.53;;;;;;;17.62;40.87;96184.59;5006732;28;20849;-80
2023/10/10 00:08:34;;;;;;;10.93;5.57;;;;;;;17.62;41.03;96188.03;5016030;28;20233;-80
2023/10/10 00:11:00;;;;;;;14.10;5.80;;;;;;;17.56;41.71;96194.81;5020359;28;20284;-80
2023/10/10 00:13:26;;;;;;;10.38;5.55;;;;;;;17.50;41.79;96194.72;5023945;28;20174;-79
2023/10/10 00:15:55;;;;;;;14.02;5.35;;;;;;;17.49;41.81;96191.28;5016711;28;20206;-79
2023/10/10 00:18:21;;;;;;;10.20;5.57;;;;;;;17.50;42.51;96195.53;5024217;28;20669;-79
2023/10/10 00:21:20;;;;;;;13.38;6.07;;;;;;;17.44;42.36;96190.97;5018309;28;20648;-79
2023/10/10 00:23:49;;;;;;;11.48;5.43;;;;;;;17.43;43.10;96189.34;5011685;28;20198;-80
2023/10/10 00:26:15;;;;;;;13.57;5.80;;;;;;;17.40;43.47;96187.03;5020630;28;20546;-79
2023/10/10 00:28:44;;;;;;;12.30;6.07;;;;;;;17.42;43.73;96192.94;5021315;28;20179;-80
2023/10/10 00:31:12;;;;;;;10.35;5.68;;;;;;;17.41;44.04;96193.13;5022128;28;20608;-78
2023/10/10 00:33:40;;;;;;;9.60;4.78;;;;;;;17.33;44.77;96180.06;5012431;28;20248;-79
2023/10/10 00:36:11;;;;;;;12.00;5.20;;;;;;;17.30;44.92;96178.56;5010620;28;20218;-79
2023/10/10 00:38:37;;;;;;;9.02;5.38;;;;;;;17.33;45.12;96172.19;5020101;28;20214;-79
2023/10/10 00:41:07;;;;;;;12.63;5.93;;;;;;;17.27;45.35;96169.25;5021906;28;20182;-79
2023/10/10 00:43:33;;;;;;;11.20;5.38;;;;;;;17.22;45.64;96170.75;5021279;28;20183;-79
2023/10/10 00:46:04;;;;;;;14.38;5.68;;;;;;;17.31;45.68;96169.69;5015748;28;20207;-79
2023/10/10 00:48:31;;;;;;;19.98;6.28;;;;;;;17.20;46.54;96172.72;5015605;28;20649;-79
2023/10/10 00:51:05;;;;;;;12.18;5.65;;;;;;;17.18;46.33;96165.03;5019775;28;20194;-79
2023/10/10 00:53:33;;;;;;;14.85;6.50;;;;;;;17.28;46.43;96165.63;5021379;28;20178;-80
2023/10/10 00:55:59;;;;;;;12.05;6.35;;;;;;;17.26;46.29;96161.56;5009036;28;20203;-80
2023/10/10 00:58:35;;;;;;;14.82;6.00;;;;;;;17.30;46.38;96167.25;5022840;28;20214;-80
2023/10/10 01:01:04;;;;;;;10.45;5.78;;;;;;;17.28;46.09;96172.69;5030503;28;20178;-80
2023/10/10 01:03:32;;;;;;;11.75;5.50;;;;;;;17.19;45.75;96165.84;5031618;28;20244;-79
2023/10/10 01:06:03;;;;;;;12.88;5.50;;;;;;;17.16;45.96;96167.03;5015723;28;20641;-79
2023/10/10 01:08:49;;;;;;;11.10;5.68;;;;;;;17.19;45.98;96160.59;5026259;28;20597;-79
2023/10/10 01:11:16;;;;;;;15.00;6.28;;;;;;;17.11;45.43;96150.97;5016483;28;20244;-80
2023/10/10 01:13:41;;;;;;;12.00;5.90;;;;;;;17.17;44.83;96152.91;5015041;28;20225;-79
2023/10/10 01:16:08;;;;;;;13.65;5.68;;;;;;;17.10;44.61;96146.72;5023683;28;20660;-80
2023/10/10 01:18:51;;;;;;;14.45;6.65;;;;;;;17.12;44.36;96146.53;5024132;28;20226;-79
2023/10/10 01:21:33;;;;;;;12.60;5.38;;;;;;;17.24;43.84;96143.34;5008986;28;20189;-79
2023/10/10 01:24:05;;;;;;;11.23;5.80;;;;;;;17.15;43.81;96141.78;5015160;28;20247;-79
2023/10/10 01:26:38;;;;;;;16.70;6.32;;;;;;;17.24;42.86;96137.28;5014506;28;20260;-80
2023/10/10 01:29:19;;;;;;;17.10;6.20;;;;;;;17.27;41.80;96137.75;5025586;28;20197;-78
2023/10/10 01:31:45;;;;;;;18.55;7.38;;;;;;;17.27;41.37;96135.13;5026155;28;20872;-79
2023/10/10 01:34:30;;;;;;;11.25;5.65;;;;;;;17.41;41.28;96138.81;5022374;28;20225;-79
2023/10/10 01:36:59;;;;;;;13.65;6.07;;;;;;;17.39;40.97;96134.72;5015080;28;20624;-79
2023/10/10 01:39:35;;;;;;;9.77;5.88;;;;;;;17.51;40.88;96130.69;5013637;28;20219;-80
2023/10/10 01:42:01;;;;;;;12.20;6.00;;;;;;;17.40;40.18;96133.72;5014115;28;20848;-79
2023/10/10 01:44:27;;;;;;;12.07;6.32;;;;;;;17.50;40.17;96134.31;5021651;28;20198;-80
2023/10/10 01:46:53;;;;;;;9.93;6.03;;;;;;;17.39;40.02;96126.84;5012420;28;20211;-79
2023/10/10 01:49:22;;;;;;;13.05;6.60;;;;;;;17.46;39.52;96130.41;5013049;28;20246;-79
2023/10/10 01:51:54;;;;;;;13.25;6.30;;;;;;;17.48;39.83;96137.09;5029389;28;20217;-79
2023/10/10 01:54:23;;;;;;;12.57;6.70;;;;;;;17.42;39.46;96134.38;5022981;28;20213;-79
2023/10/10 01:56:51;;;;;;;19.50;6.50;;;;;;;17.55;39.25;96124.91;5020851;28;20248;-80
2023/10/10 01:59:19;;;;;;;10.50;5.90;;;;;;;17.47;39.31;96127.59;5027072;28;20206;-80
2023/10/10 02:01:46;;;;;;;13.25;6.90;;;;;;;17.44;39.55;96122.69;5013393;28;20635;-79
2023/10/10 02:04:11;;;;;;;13.15;6.82;;;;;;;17.53;39.08;96121.63;5023479;28;20262;-80
2023/10/10 02:06:40;;;;;;;16.88;6.53;;;;;;;17.45;39.13;96123.50;5023739;28;20752;-80
2023/10/10 02:09:11;;;;;;;16.55;6.50;;;;;;;17.49;39.43;96119.53;5022479;28;20179;-79
2023/10/10 02:11:38;;;;;;;11.05;6.40;;;;;;;17.52;39.20;96120.00;5014409;28;20213;-79
2023/10/10 02:14:11;;;;;;;13.07;6.38;;;;;;;17.49;39.14;96112.50;5038752;28;20277;-79
2023/10/10 02:16:40;;;;;;;14.43;6.57;;;;;;;17.53;39.00;96105.88;5023724;28;20205;-79
2023/10/10 02:19:15;;;;;;;12.27;6.53;;;;;;;17.46;39.30;96102.31;5012722;28;20213;-79
2023/10/10 02:21:45;;;;;;;14.27;5.82;;;;;;;17.37;39.05;96111.25;5027246;28;20248;-79
2023/10/10 02:25:31;;;;;;;11.25;6.03;;;;;;;17.40;39.26;96110.91;5010710;28;20183;-79
2023/10/10 02:26:56;;;;;;;12.43;6.03;;;;;;;17.38;38.97;96112.88;5017187;28;20214;-80
2023/10/10 02:32:06;;;;;;;11.85;6.43;;;;;;;17.54;38.16;96110.13;5022401;28;20253;-79
2023/10/10 02:34:34;;;;;;;13.45;6.35;;;;;;;17.48;38.04;96112.66;5028333;28;20190;-79
2023/10/10 02:37:13;;;;;;;12.52;5.70;;;;;;;17.58;37.88;96104.53;5015770;28;20357;-79
2023/10/10 02:39:42;;;;;;;12.20;6.35;;;;;;;17.71;37.83;96099.53;5015170;28;20225;-79
2023/10/10 02:42:18;;;;;;;13.45;5.97;;;;;;;17.70;37.56;96103.97;5024485;28;20629;-79
2023/10/10 02:44:46;;;;;;;10.55;5.50;;;;;;;17.60;37.58;96107.81;5028321;28;20566;-79
2023/10/10 02:47:13;;;;;;;11.10;6.15;;;;;;;17.61;37.31;96112.88;5011455;28;20868;-79
2023/10/10 02:49:42;;;;;;;12.13;5.85;;;;;;;17.58;37.54;96105.38;5024835;28;20261;-80
2023/10/10 02:52:07;;;;;;;9.63;5.38;;;;;;;17.62;37.36;96105.81;5007157;28;20187;-79
2023/10/10 02:54:34;;;;;;;12.07;5.28;;;;;;;17.63;37.28;96100.38;5021900;28;20679;-79
2023/10/10 02:57:22;;;;;;;13.30;5.70;;;;;;;17.62;37.06;96104.00;5030227;28;20206;-79
2023/10/10 02:59:44;;;;;;;9.68;5.25;;;;;;;17.61;37.34;96097.13;5021730;28;20301;-79
2023/10/10 03:02:11;;;;;;;11.23;4.97;;;;;;;17.64;37.18;96098.56;5018189;28;20653;-80
2023/10/10 03:07:27;;;;;;;10.85;5.68;;;;;;;17.43;37.71;96109.75;5026303;28;20210;-80
2023/10/10 03:12:37;;;;;;;11.13;5.72;;;;;;;17.08;38.35;96104.09;5014175;28;20556;-79
2023/10/10 03:15:13;;;;;;;9.25;5.30;;;;;;;16.99;38.82;96107.75;5012696;28;20220;-79
2023/10/10 03:17:49;;;;;;;11.50;6.22;;;;;;;16.90;39.14;96098.31;5020503;28;20237;-79
2023/10/10 03:25:54;;;;;;;10.63;5.38;;;;;;;16.71;39.43;96099.56;5022372;28;20236;-80
2023/10/10 03:28:21;;;;;;;10.13;6.15;;;;;;;16.61;40.02;96099.75;5027709;28;20201;-80
2023/10/10 03:31:04;;;;;;;9.75;5.72;;;;;;;16.47;39.91;96103.09;5028547;28;20217;-80
2023/10/10 03:33:44;;;;;;;9.30;5.70;;;;;;;16.53;40.15;96106.84;5025637;28;20186;-81
2023/10/10 05:25:13;;;;;;;14.20;6.45;;;;;;;14.98;40.75;96094.75;5031276;28;20598;-80
2023/10/10 05:27:42;;;;;;;15.02;7.35;;;;;;;14.85;41.81;96093.59;5024219;28;20281;-79
2023/10/10 05:30:27;;;;;;;12.73;6.93;;;;;;;14.87;41.16;96102.09;5021728;28;20191;-78
2023/10/10 05:33:02;;;;;;;13.50;7.00;;;;;;;14.82;40.73;96099.13;5016093;28;20175;-80
2023/10/10 05:35:38;;;;;;;12.48;6.97;;;;;;;14.79;41.38;96100.25;5026320;28;20178;-79
2023/10/10 05:38:07;;;;;;;12.48;6.55;;;;;;;14.73;41.21;96095.66;5012700;28;20205;-79
2023/10/10 05:40:33;;;;;;;11.77;6.47;;;;;;;14.65;41.63;96103.50;5024796;28;20218;-79
2023/10/10 05:43:09;;;;;;;10.73;6.87;;;;;;;14.58;41.82;96097.28;5024649;28;20591;-79
2023/10/10 05:45:37;;;;;;;13.38;6.63;;;;;;;14.57;42.03;96096.44;5022528;28;20183;-80
2023/10/10 05:48:03;;;;;;;13.57;7.28;;;;;;;14.61;42.18;96104.78;5023144;28;20266;-80
2023/10/10 05:50:29;;;;;;;14.32;8.35;;;;;;;14.63;42.50;96103.66;5014241;28;20274;-80
2023/10/10 05:52:54;;;;;;;13.40;7.47;;;;;;;14.68;42.04;96103.19;5013982;28;20190;-80
2023/10/10 05:55:20;;;;;;;13.93;6.63;;;;;;;14.73;42.03;96106.13;5022950;28;20265;-79
2023/10/10 05:57:45;;;;;;;13.20;7.60;;;;;;;14.79;41.84;96110.72;5015946;28;20194;-81
2023/10/10 06:00:11;;;;;;;13.30;7.03;;;;;;;14.85;40.49;96106.66;5024378;28;20583;-79
2023/10/10 06:02:37;;;;;;;14.07;7.60;;;;;;;14.84;40.10;96108.47;5024726;28;20191;-79
2023/10/10 06:05:08;;;;;;;16.45;7.70;;;;;;;14.90;38.63;96113.03;5026152;28;20209;-78
2023/10/10 06:07:37;;;;;;;16.98;7.95;;;;;;;14.98;36.65;96113.03;5026982;28;20262;-78
2023/10/10 06:10:06;;;;;;;15.63;7.23;;;;;;;15.04;35.91;96113.41;5010942;28;20328;-78
2023/10/10 06:12:31;;;;;;;14.50;7.03;;;;;;;15.30;35.81;96114.91;5016327;28;20595;-78
2023/10/10 06:14:58;;;;;;;14.18;8.07;;;;;;;15.35;37.06;96113.56;5028743;28;20193;-78
2023/10/10 06:17:23;;;;;;;15.98;8.18;;;;;;;15.46;36.93;96111.47;5034518;28;20702;-78
2023/10/10 06:19:50;;;;;;;15.73;7.50;;;;;;;15.65;36.46;96120.00;5027996;28;20206;-80
2023/10/10 06:22:15;;;;;;;13.55;7.18;;;;;;;15.73;35.69;96117.38;5026160;28;20214;-79
2023/10/10 06:24:41;;;;;;;12.68;7.03;;;;;;;15.95;35.57;96119.28;5032260;28;20190;-79
2023/10/10 06:27:09;;;;;;;13.65;6.63;;;;;;;16.11;36.05;96116.63;5027818;28;20205;-80
2023/10/10 06:29:40;;;;;;;12.40;7.28;;;;;;;16.19;36.33;96113.19;5029981;28;20273;-80
2023/10/10 06:32:10;;;;;;;14.25;6.93;;;;;;;16.34;36.50;96115.91;5025673;28;20206;-78
2023/10/10 06:34:36;;;;;;;14.27;6.78;;;;;;;16.57;36.31;96111.56;5029130;28;21095;-79
2023/10/10 06:37:07;;;;;;;13.55;6.80;;;;;;;16.64;36.30;96124.81;5023085;28;20215;-80
2023/10/10 06:39:34;;;;;;;14.25;7.10;;;;;;;16.72;36.41;96124.81;5033628;28;20210;-79
2023/10/10 06:42:00;;;;;;;13.20;6.45;;;;;;;16.86;36.85;96120.63;5030073;28;20186;-78
2023/10/10 06:44:39;;;;;;;11.70;6.63;;;;;;;17.02;36.98;96110.03;5017635;28;20205;-79
2023/10/10 06:47:08;;;;;;;11.90;6.18;;;;;;;17.17;36.69;96121.41;5025757;28;20211;-79
2023/10/10 06:49:43;;;;;;;14.07;6.88;;;;;;;17.26;36.92;96125.63;5036127;28;20179;-79
2023/10/10 06:52:18;;;;;;;15.30;6.60;;;;;;;17.30;37.25;96128.69;5011077;28;20186;-78
2023/10/10 06:54:44;;;;;;;16.20;6.82;;;;;;;17.43;37.40;96128.13;5027701;28;20714;-78
2023/10/10 06:57:17;;;;;;;12.15;6.60;;;;;;;17.46;37.12;96136.47;5022251;28;20203;-78
2023/10/10 06:59:42;;;;;;;12.75;6.43;;;;;;;17.58;37.48;96125.53;5019609;28;20231;-80
2023/10/10 07:02:20;;;;;;;16.02;6.93;;;;;;;17.64;37.64;96124.84;5023120;28;20293;-79
2023/10/10 07:04:52;;;;;;;12.55;6.93;;;;;;;17.71;37.86;96118.72;5033457;28;20191;-79
2023/10/10 07:07:18;;;;;;;13.10;6.43;;;;;;;17.87;37.45;96117.78;5028451;28;20210;-79
2023/10/10 07:09:44;;;;;;;12.55;6.13;;;;;;;17.92;37.65;96115.41;5012462;28;20206;-80
2023/10/10 07:12:09;;;;;;;14.43;6.90;;;;;;;18.01;37.17;96119.59;5021427;28;20187;-79
2023/10/10 07:14:40;;;;;;;15.10;6.72;;;;;;;18.11;37.48;96124.59;5017586;28;20182;-79
2023/10/10 07:17:11;;;;;;;16.10;6.93;;;;;;;18.26;37.07;96135.91;5017664;28;20623;-79
2023/10/10 07:19:54;;;;;;;12.55;6.47;;;;;;;18.38;36.76;96134.50;5011196;28;20630;-79
2023/10/10 07:22:21;;;;;;;16.10;6.72;;;;;;;18.40;38.34;96139.56;5021623;28;20265;-79
2023/10/10 07:24:47;;;;;;;14.02;6.45;;;;;;;18.18;40.15;96137.81;5025687;28;20182;-79
2023/10/10 07:27:13;;;;;;;15.27;6.15;;;;;;;18.38;40.59;96146.81;5025076;28;20202;-79
2023/10/10 07:32:27;;;;;;;11.45;6.38;;;;;;;18.46;41.93;96151.16;5027470;28;20187;-79
2023/10/10 07:34:54;;;;;;;9.88;6.53;;;;;;;18.56;41.33;96143.81;5027988;28;20190;-79
2023/10/10 07:37:22;;;;;;;13.90;6.45;;;;;;;18.62;39.67;96154.41;5004400;28;20502;-80
2023/10/10 07:40:51;;;;;;;13.25;6.68;;;;;;;18.59;39.10;96146.06;5018986;28;20272;-79
2023/10/10 07:42:49;;;;;;;11.88;6.25;;;;;;;18.58;39.57;96154.97;5021378;28;20278;-80
2023/10/10 07:45:15;;;;;;;12.75;6.05;;;;;;;18.67;39.49;96161.78;5026452;28;20183;-79
2023/10/10 07:50:34;;;;;;;12.60;6.43;;;;;;;18.77;39.66;96157.06;5029140;28;20186;-79
2023/10/10 07:53:04;;;;;;;8.77;5.75;;;;;;;18.93;39.67;96150.78;5026909;28;20181;-79
2023/10/10 07:55:33;;;;;;;9.52;6.07;;;;;;;18.99;40.36;96157.09;5026671;28;20181;-78
2023/10/10 07:58:05;;;;;;;10.98;6.28;;;;;;;19.09;39.08;96160.28;5023838;28;20215;-79
2023/10/10 08:00:38;;;;;;;11.35;6.13;;;;;;;19.08;38.91;96158.63;5023026;28;20219;-79
2023/10/10 08:03:07;;;;;;;11.18;7.00;;;;;;;19.17;38.04;96153.09;5015365;28;20179;-79
2023/10/10 08:05:33;;;;;;;12.98;6.43;;;;;;;19.15;36.49;96159.53;5030800;28;20193;-80
2023/10/10 08:08:04;;;;;;;15.02;6.32;;;;;;;19.13;35.92;96162.34;5029620;28;20190;-79
2023/10/10 08:10:37;;;;;;;13.35;7.18;;;;;;;19.28;36.24;96159.69;5036977;28;20252;-78
2023/10/10 08:13:14;;;;;;;12.55;7.30;;;;;;;19.46;34.86;96161.88;5019409;28;20233;-79
2023/10/10 08:15:51;;;;;;;19.85;7.05;;;;;;;19.30;34.24;96164.75;5022293;28;20623;-79
2023/10/10 08:23:30;;;;;;;11.48;6.75;;;;;;;19.62;33.79;96171.41;5023964;28;20608;-78
2023/10/10 08:25:56;;;;;;;14.48;7.43;;;;;;;19.52;33.89;96167.22;5032531;28;20199;-80
2023/10/10 08:28:22;;;;;;;15.10;7.43;;;;;;;19.57;34.18;96168.50;5030940;28;20202;-79
2023/10/10 08:30:48;;;;;;;11.95;6.65;;;;;;;19.63;34.32;96173.03;5030121;28;20182;-78
2023/10/10 08:33:14;;;;;;;14.35;6.22;;;;;;;19.96;34.10;96170.66;5029207;28;20247;-80
2023/10/10 08:35:39;;;;;;;16.25;6.63;;;;;;;20.17;34.04;96164.53;5032657;28;20231;-79
2023/10/10 08:38:05;;;;;;;13.43;6.60;;;;;;;20.23;34.19;96164.59;5025482;28;20322;-79
2023/10/10 08:40:35;;;;;;;13.45;7.00;;;;;;;20.36;34.42;96166.50;5010825;28;20206;-80
2023/10/10 08:43:02;;;;;;;15.00;6.97;;;;;;;20.51;34.15;96167.22;5029021;28;20185;-79
2023/10/10 08:45:39;;;;;;;16.17;7.05;;;;;;;20.72;34.23;96168.94;5027901;28;20191;-79
2023/10/10 08:48:12;;;;;;;13.55;5.82;;;;;;;20.81;34.91;96166.97;5017910;28;20325;-78
2023/10/10 08:50:40;;;;;;;10.57;6.00;;;;;;;20.89;34.80;96172.91;5024144;28;20178;-79
2023/10/10 08:53:13;;;;;;;15.23;6.40;;;;;;;20.90;35.43;96168.44;5017161;28;20211;-80
2023/10/10 08:55:40;;;;;;;13.73;6.00;;;;;;;21.06;36.42;96169.91;5030813;28;20207;-79
2023/10/10 08:58:07;;;;;;;10.75;6.72;;;;;;;20.94;35.56;96167.03;5030858;28;20228;-79
2023/10/10 09:00:33;;;;;;;11.65;6.78;;;;;;;20.70;35.88;96162.25;5046643;28;20187;-77
2023/10/10 09:02:58;;;;;;;10.77;5.63;;;;;;;21.03;36.09;96168.50;5057075;28;20255;-78
2023/10/10 09:05:24;;;;;;;17.83;6.38;;;;;;;21.02;35.84;96171.31;5044271;28;20198;-78
2023/10/10 09:07:53;;;;;;;32.00;8.23;;;;;;;21.07;36.59;96167.06;5031316;28;20267;-79
2023/10/10 09:10:28;;;;;;;17.65;6.90;;;;;;;21.12;35.53;96172.59;5031051;28;20210;-78
2023/10/10 09:12:58;;;;;;;13.57;6.38;;;;;;;21.38;35.72;96171.03;5024744;28;20223;-79
2023/10/10 09:15:27;;;;;;;13.27;6.32;;;;;;;21.41;36.43;96170.66;5030128;28;20202;-80
2023/10/10 09:17:55;;;;;;;16.30;6.82;;;;;;;21.57;36.03;96162.38;5022213;28;20672;-80
2023/10/10 09:20:28;;;;;;;16.27;6.53;;;;;;;21.71;35.20;96165.81;5023337;28;20690;-81
2023/10/10 09:22:55;;;;;;;20.48;7.10;;;;;;;21.74;35.51;96168.06;5024104;28;20187;-79
2023/10/10 09:25:23;;;;;;;20.83;7.47;;;;;;;21.94;35.26;96168.91;5016296;28;20241;-78
2023/10/10 09:28:04;;;;;;;15.50;6.25;;;;;;;21.96;35.19;96166.03;5024874;28;20190;-77
2023/10/10 09:30:45;;;;;;;19.13;6.93;;;;;;;22.08;35.04;96169.72;5032869;28;20182;-78
2023/10/10 09:33:22;;;;;;;12.82;6.60;;;;;;;21.99;35.40;96176.19;5025780;28;20575;-78
2023/10/10 09:35:53;;;;;;;18.65;6.88;;;;;;;22.13;35.32;96166.47;5018982;28;20209;-78
2023/10/10 09:38:21;;;;;;;15.48;7.65;;;;;;;22.25;35.68;96159.53;5007141;28;20603;-79
2023/10/10 09:40:48;;;;;;;13.27;6.60;;;;;;;22.40;35.46;96161.97;5025315;28;20217;-78
2023/10/10 09:43:24;;;;;;;11.48;5.82;;;;;;;22.54;34.88;96164.38;5014957;28;20349;-77
2023/10/10 09:46:10;;;;;;;16.85;7.03;;;;;;;22.49;35.33;96160.72;5026220;28;20220;-77
2023/10/10 09:51:30;;;;;;;12.63;6.15;;;;;;;22.65;36.45;96165.56;5023780;28;20204;-77
2023/10/10 09:54:11;;;;;;;13.60;6.43;;;;;;;22.60;36.47;96179.41;5016756;28;20190;-77
2023/10/10 09:56:37;;;;;;;13.23;6.10;;;;;;;22.36;37.06;96177.44;5025451;28;20234;-77
2023/10/10 09:59:06;;;;;;;18.20;6.80;;;;;;;22.51;37.40;96179.84;5020058;28;20325;-78
2023/10/10 10:01:44;;;;;;;15.43;6.78;;;;;;;22.55;36.54;96176.59;5008227;28;20313;-78
2023/10/10 10:04:12;;;;;;;14.90;6.53;;;;;;;22.63;36.64;96182.69;5023275;28;20210;-79
2023/10/10 10:06:53;;;;;;;15.63;6.32;;;;;;;22.59;37.12;96179.63;5026028;28;20619;-78
2023/10/10 10:09:21;;;;;;;14.13;6.45;;;;;;;22.90;37.44;96178.97;5048633;28;20182;-81
2023/10/10 10:11:56;;;;;;;18.60;6.78;;;;;;;22.99;36.39;96180.38;5037705;28;20193;-82
2023/10/10 10:14:36;;;;;;;14.45;6.20;;;;;;;22.84;36.63;96185.06;5037808;28;20190;-82
2023/10/10 10:17:18;;;;;;;15.07;6.43;;;;;;;22.84;37.25;96188.56;5021323;28;20711;-81
2023/10/10 10:19:45;;;;;;;11.20;5.78;;;;;;;23.10;36.96;96181.53;5039374;28;20545;-81
2023/10/10 10:22:17;;;;;;;17.70;6.95;;;;;;;22.89;37.24;96187.94;5021016;28;20190;-81
2023/10/10 10:24:44;;;;;;;11.52;6.32;;;;;;;22.98;36.59;96189.34;5024257;28;20552;-81
2023/10/10 10:28:00;;;;;;;16.08;6.45;;;;;;;22.79;37.51;96183.06;5037003;28;20222;-79
2023/10/10 10:30:35;;;;;;;15.38;6.28;;;;;;;22.97;37.68;96194.81;5025277;28;20198;-79
2023/10/10 10:32:54;;;;;;;13.25;6.80;;;;;;;23.02;36.22;96179.13;5036193;28;20233;-80
2023/10/10 10:35:56;;;;;;;13.57;6.78;;;;;;;23.26;36.70;96186.38;5033414;28;20188;-81
2023/10/10 10:38:25;;;;;;;14.63;6.00;;;;;;;23.23;36.85;96180.66;5024737;28;20197;-82
2023/10/10 10:41:04;;;;;;;18.25;6.57;;;;;;;23.25;33.51;96174.16;5031879;28;20217;-80
2023/10/10 10:43:38;;;;;;;16.58;7.25;;;;;;;23.28;33.66;96176.34;5034442;28;20205;-80
2023/10/10 10:46:27;;;;;;;13.98;6.47;;;;;;;23.37;35.33;96180.38;5030747;28;20305;-80
2023/10/10 10:49:02;;;;;;;15.82;6.32;;;;;;;23.53;34.68;96179.09;5021822;28;20186;-81
2023/10/10 10:51:52;;;;;;;14.13;6.57;;;;;;;23.27;37.09;96176.56;5037474;28;20182;-80
2023/10/10 10:54:37;;;;;;;9.95;6.00;;;;;;;23.31;37.43;96178.56;5030083;28;20207;-80
2023/10/10 10:57:03;;;;;;;13.77;5.85;;;;;;;23.11;36.94;96188.47;5018016;28;20305;-81
2023/10/10 10:59:45;;;;;;;13.50;5.85;;;;;;;22.91;38.48;96185.91;5032732;28;20207;-81
2023/10/10 11:02:17;;;;;;;15.70;6.25;;;;;;;23.00;38.07;96186.47;5026942;28;20270;-81
2023/10/10 11:04:50;;;;;;;13.55;6.25;;;;;;;22.80;37.93;96181.22;5031558;28;20194;-81
2023/10/10 11:07:27;;;;;;;12.95;6.70;;;;;;;23.00;37.51;96179.34;5018754;28;20206;-80
2023/10/10 11:09:53;;;;;;;13.90;5.93;;;;;;;23.04;37.44;96169.13;5023596;28;20243;-80
2023/10/10 11:12:21;;;;;;;14.45;6.30;;;;;;;23.35;36.89;96171.84;5021372;28;20190;-82
2023/10/10 11:14:49;;;;;;;13.32;6.20;;;;;;;23.28;37.52;96171.06;5025837;28;20182;-80
2023/10/10 11:17:18;;;;;;;13.90;6.13;;;;;;;23.51;37.33;96172.38;5032405;28;20203;-79
2023/10/10 11:19:46;;;;;;;13.63;6.70;;;;;;;23.37;37.49;96169.78;5032324;28;20214;-80
2023/10/10 11:22:16;;;;;;;13.52;6.63;;;;;;;22.89;38.49;96167.56;5026898;28;20187;-80
2023/10/10 11:24:47;;;;;;;11.98;6.20;;;;;;;23.25;37.53;96160.91;5026402;28;20709;-82
2023/10/10 11:29:47;;;;;;;13.45;5.93;;;;;;;23.74;37.06;96154.88;5031553;28;20211;-80
2023/10/10 11:32:15;;;;;;;11.77;5.80;;;;;;;23.88;36.84;96155.63;5022861;28;20186;-81
2023/10/10 11:34:44;;;;;;;17.90;6.25;;;;;;;24.01;36.62;96150.19;5032094;28;20218;-81
2023/10/10 11:37:21;;;;;;;14.07;6.70;;;;;;;23.71;37.83;96144.72;5041496;28;20217;-82
2023/10/10 11:39:47;;;;;;;25.35;7.03;;;;;;;24.07;36.64;96145.06;5032584;28;20200;-82
2023/10/10 11:42:30;;;;;;;12.80;6.78;;;;;;;24.16;35.21;96147.22;5016592;28;20208;-80
2023/10/10 11:45:17;;;;;;;14.32;6.70;;;;;;;24.40;33.31;96142.13;5009510;28;20605;-79
2023/10/10 11:47:44;;;;;;;14.85;6.20;;;;;;;24.43;36.26;96137.19;5014066;28;20220;-79
2023/10/10 11:50:15;;;;;;;13.23;6.65;;;;;;;24.34;34.32;96138.50;5018492;28;20552;-80
2023/10/10 11:52:57;;;;;;;14.68;6.25;;;;;;;24.60;33.67;96140.06;5025683;28;20183;-79
2023/10/10 11:55:26;;;;;;;13.55;6.45;;;;;;;24.67;32.03;96127.53;5026576;28;20190;-78
2023/10/10 11:58:40;;;;;;;15.52;6.53;;;;;;;24.73;32.05;96123.16;5013182;28;20640;-79
2023/10/10 12:00:42;;;;;;;12.07;5.88;;;;;;;24.60;32.48;96126.81;5020362;28;20339;-79
2023/10/10 12:03:12;;;;;;;11.93;5.72;;;;;;;24.61;31.54;96123.09;5012899;28;20203;-79
2023/10/10 12:05:47;;;;;;;10.43;5.63;;;;;;;24.92;31.97;96121.34;5029270;28;20206;-79
2023/10/10 12:08:15;;;;;;;12.00;5.70;;;;;;;24.89;32.44;96122.56;5023996;28;20803;-77
2023/10/10 12:10:47;;;;;;;16.33;6.18;;;;;;;24.81;30.45;96114.91;5014677;28;20198;-79
2023/10/10 12:13:25;;;;;;;13.82;6.72;;;;;;;24.54;31.13;96106.44;5017830;28;20179;-78
2023/10/10 12:15:51;;;;;;;12.77;5.93;;;;;;;24.62;31.79;96108.00;5026289;28;20302;-78
2023/10/10 12:18:16;;;;;;;13.02;6.65;;;;;;;24.78;30.66;96105.53;5028765;28;20214;-79
2023/10/10 12:20:44;;;;;;;11.95;6.45;;;;;;;24.96;30.30;96103.91;5032022;28;20194;-78
2023/10/10 12:23:10;;;;;;;12.57;6.00;;;;;;;24.95;31.46;96104.94;5032094;28;20182;-79
2023/10/10 12:25:40;;;;;;;11.50;6.35;;;;;;;25.06;30.91;96112.97;5037060;28;20306;-78
2023/10/10 12:28:09;;;;;;;14.35;6.25;;;;;;;25.12;30.31;96112.09;5049712;28;20195;-79
2023/10/10 12:30:40;;;;;;;10.90;6.45;;;;;;;25.03;30.63;96102.00;5051225;28;20198;-77
2023/10/10 12:33:12;;;;;;;14.75;6.45;;;;;;;25.10;30.53;96105.38;5047476;28;20171;-76
2023/10/10 12:35:39;;;;;;;12.48;5.95;;;;;;;25.24;29.86;96104.16;5049841;28;20197;-77
2023/10/10 12:38:04;;;;;;;13.95;6.55;;;;;;;25.20;30.75;96097.69;5054493;28;20398;-79
2023/10/10 12:40:33;;;;;;;15.73;6.32;;;;;;;25.27;30.67;96100.25;5042232;28;20202;-78
2023/10/10 12:43:00;;;;;;;15.95;5.88;;;;;;;25.39;31.20;96095.78;5033354;28;20186;-77
2023/10/10 12:45:26;;;;;;;15.60;6.25;;;;;;;25.25;30.98;96087.16;5054525;28;20186;-77
2023/10/10 12:47:52;;;;;;;19.50;6.95;;;;;;;25.19;31.08;96092.59;5050706;28;20182;-77
2023/10/10 12:50:24;;;;;;;15.68;6.95;;;;;;;25.16;31.20;96085.06;5031959;28;20236;-77
2023/10/10 12:53:01;;;;;;;13.68;6.43;;;;;;;25.12;31.55;96088.19;5055132;28;20310;-77
2023/10/10 12:55:27;;;;;;;13.02;6.38;;;;;;;25.07;31.60;96085.38;5054893;28;20178;-78
2023/10/10 12:57:54;;;;;;;12.00;5.45;;;;;;;25.00;32.16;96083.81;5040212;28;20190;-76
2023/10/10 13:00:33;;;;;;;18.45;5.63;;;;;;;25.33;31.69;96086.84;5031815;28;20206;-78
2023/10/10 13:02:58;;;;;;;12.07;5.88;;;;;;;25.28;31.77;96083.25;5026160;28;20640;-77
2023/10/10 13:05:27;;;;;;;13.90;5.80;;;;;;;25.24;32.29;96085.53;5008132;28;20573;-78
2023/10/10 13:07:58;;;;;;;13.25;6.15;;;;;;;25.43;31.94;96083.63;5019526;28;20617;-77
2023/10/10 13:10:28;;;;;;;14.02;5.53;;;;;;;25.46;32.53;96082.38;5028357;28;20193;-83
2023/10/10 13:12:54;;;;;;;14.80;6.10;;;;;;;25.38;32.16;96081.66;5041583;28;20210;-79
2023/10/10 13:15:27;;;;;;;12.18;5.85;;;;;;;25.57;32.25;96081.59;5027710;28;20233;-79
2023/10/10 13:17:53;;;;;;;13.90;6.60;;;;;;;25.46;31.01;96087.69;5027935;28;20182;-79
2023/10/10 13:20:21;;;;;;;14.80;6.78;;;;;;;25.35;31.73;96081.28;5025780;28;20202;-77
2023/10/10 13:22:50;;;;;;;14.93;6.60;;;;;;;25.30;30.68;96083.84;5024491;28;20191;-79
2023/10/10 13:25:17;;;;;;;15.55;6.38;;;;;;;25.06;33.69;96085.59;5019080;28;20235;-79
2023/10/10 13:27:46;;;;;;;16.70;6.70;;;;;;;25.32;33.65;96087.88;5011205;28;20202;-79
2023/10/10 13:30:12;;;;;;;16.30;7.28;;;;;;;25.16;34.96;96087.72;5023279;28;20301;-79
2023/10/10 13:32:38;;;;;;;17.20;6.30;;;;;;;24.74;34.69;96084.97;5026790;28;20183;-77
2023/10/10 13:35:05;;;;;;;12.85;5.85;;;;;;;24.79;35.06;96085.09;5024329;28;20200;-78
2023/10/10 13:37:30;;;;;;;17.60;5.90;;;;;;;24.99;34.52;96084.84;5010127;28;20598;-78
2023/10/10 13:39:55;;;;;;;10.80;5.20;;;;;;;24.63;33.47;96083.88;5019523;28;20229;-78
2023/10/10 13:42:21;;;;;;;15.82;5.75;;;;;;;24.89;34.32;96089.88;5022211;28;20194;-77
2023/10/10 13:44:48;;;;;;;10.20;5.05;;;;;;;25.08;33.58;96070.22;5026702;28;20192;-78
2023/10/10 13:47:14;;;;;;;11.70;5.72;;;;;;;25.21;33.51;96087.84;5023027;28;20217;-77
2023/10/10 13:49:44;;;;;;;11.43;5.03;;;;;;;25.08;31.40;96080.88;5014262;28;20183;-78
2023/10/10 13:52:11;;;;;;;10.68;5.30;;;;;;;25.07;30.83;96080.06;5024064;28;20186;-78
2023/10/10 13:54:36;;;;;;;8.90;4.88;;;;;;;24.96;31.35;96082.66;5022342;28;20195;-79
2023/10/10 13:57:02;;;;;;;9.93;5.55;;;;;;;24.99;30.80;96075.03;5013511;28;20207;-78
2023/10/10 13:59:27;;;;;;;11.05;5.65;;;;;;;24.94;30.51;96074.09;5014013;28;20552;-79
2023/10/10 14:01:54;;;;;;;8.38;4.95;;;;;;;24.90;30.93;96067.59;5027805;28;20221;-77